Main page
METAR-TAF:

METAR-TAF

Airports :

Bauru Airport

Bauru, São Paulo, Brazil

latitude: 22-19S, longitude: 049-04W, elevation: 590 m

Current weather observation

The report was made 12 hours and 31 minutes ago, at 15:00 UTC
Wind 7 kt from the Northeast
Temperature 25°C
Humidity 61%
Pressure 1022 hPa
Visibility 10 km or more
no clouds below 1500 m and no cumulonimbus

METAR: SBBU 261500Z 05007KT CAVOK 25/17 Q1022

Time: 00:31 (03:31 UTC)

Forecast

The report was made 5 hours and 31 minutes ago, at 22:00 UTC
Forecast valid from 27 at 00 UTC to 27 at 12 UTC
Wind 5 kt from the East/Southeast
Visibility 10 km or more
no clouds below 1500 m and no cumulonimbus

TAF: SBBU 262200Z 2700/2712 11005KT CAVOK TX22/2700Z TN14/2708Z RMK PER

Weather observations and forecasts of more than 4000 airports (METAR and TAF reports).

The available stations are represented by yellow and red dots on the map.

Hover mouse over dot to see the name of the station.

Then click to see weather observations and forecasts.

To change the map : click on the green buttons with a black cross to zoom in, on the green button with a dash to zoom out, or on the green arrows for adjacent maps.


METAR-TAF: